createdAt,value
2022-08-28T00:00:43.753Z,8.73
2022-08-28T00:03:13.137Z,9.88
2022-08-28T00:05:41.294Z,9.88
2022-08-28T00:08:14.047Z,8.68
2022-08-28T00:10:42.055Z,9.50
2022-08-28T00:13:15.755Z,8.93
2022-08-28T00:15:43.104Z,9.55
2022-08-28T00:18:10.409Z,10.80
2022-08-28T00:20:39.435Z,9.15
2022-08-28T00:23:07.336Z,10.52
2022-08-28T00:25:35.277Z,7.75
2022-08-28T00:28:08.801Z,8.00
2022-08-28T00:30:40.661Z,8.65
2022-08-28T00:33:15.515Z,7.45
2022-08-28T00:35:44.161Z,8.05
2022-08-28T00:38:13.438Z,9.82
2022-08-28T00:40:44.762Z,8.85
2022-08-28T00:43:37.298Z,9.02
2022-08-28T00:46:08.195Z,9.57
2022-08-28T00:48:36.486Z,7.55
2022-08-28T00:51:23.446Z,9.73
2022-08-28T00:53:51.770Z,11.73
2022-08-28T00:56:19.975Z,9.70
2022-08-28T00:58:49.651Z,8.77
2022-08-28T01:01:16.971Z,7.72
2022-08-28T01:03:45.323Z,7.45
2022-08-28T01:06:16.108Z,7.95
2022-08-28T01:08:50.405Z,7.78
2022-08-28T01:11:19.847Z,9.90
2022-08-28T01:13:50.374Z,8.25
2022-08-28T01:16:19.609Z,8.23
2022-08-28T01:18:47.510Z,9.38
2022-08-28T01:21:32.889Z,8.05
2022-08-28T01:24:07.652Z,7.65
2022-08-28T01:26:35.221Z,8.27
2022-08-28T01:29:03.059Z,7.85
2022-08-28T01:31:31.920Z,7.68
2022-08-28T01:33:59.777Z,7.15
2022-08-28T01:36:28.964Z,8.20
2022-08-28T01:39:08.750Z,8.10
2022-08-28T01:41:40.302Z,9.35
2022-08-28T01:44:08.650Z,9.18
2022-08-28T01:46:36.156Z,8.18
2022-08-28T01:49:05.067Z,8.75
2022-08-28T01:51:35.033Z,9.80
2022-08-28T01:54:07.135Z,7.38
2022-08-28T01:59:07.357Z,6.28
2022-08-28T02:01:34.919Z,7.15
2022-08-28T02:04:04.734Z,7.93
2022-08-28T02:06:34.190Z,7.15
2022-08-28T02:09:01.825Z,6.70
2022-08-28T02:11:31.010Z,6.45
2022-08-28T02:13:58.361Z,7.60
2022-08-28T02:16:27.527Z,7.50
2022-08-28T02:18:54.896Z,8.20
2022-08-28T02:21:22.529Z,6.47
2022-08-28T02:23:49.752Z,5.75
2022-08-28T02:26:17.500Z,6.30
2022-08-28T02:28:45.088Z,9.65
2022-08-28T02:31:13.624Z,7.40
2022-08-28T02:33:43.961Z,10.85
2022-08-28T02:36:13.370Z,7.13
2022-08-28T02:38:40.727Z,7.10
2022-08-28T02:41:08.594Z,7.07
2022-08-28T02:43:36.446Z,8.57
2022-08-28T02:46:04.925Z,6.75
2022-08-28T02:48:34.640Z,7.78
2022-08-28T02:51:09.270Z,5.95
2022-08-28T02:53:37.651Z,6.53
2022-08-28T02:56:06.341Z,6.43
2022-08-28T02:58:35.639Z,6.82
2022-08-28T03:01:08.014Z,5.90
2022-08-28T03:03:35.400Z,7.32
2022-08-28T03:06:04.993Z,8.07
2022-08-28T03:08:32.988Z,6.32
2022-08-28T03:11:01.002Z,7.32
2022-08-28T03:13:28.611Z,7.13
2022-08-28T03:15:56.521Z,9.20
2022-08-28T03:18:25.574Z,7.72
2022-08-28T03:20:55.733Z,8.10
2022-08-28T03:23:26.567Z,7.05
2022-08-28T03:26:02.714Z,6.07
2022-08-28T03:28:40.349Z,5.85
2022-08-28T03:31:10.158Z,5.70
2022-08-28T03:33:41.943Z,7.72
2022-08-28T03:36:13.148Z,5.65
2022-08-28T03:41:14.882Z,7.47
2022-08-28T03:43:42.967Z,7.20
2022-08-28T03:46:15.304Z,7.53
2022-08-28T03:48:44.915Z,7.80
2022-08-28T03:51:16.721Z,8.50
2022-08-28T03:53:45.397Z,6.82
2022-08-28T03:56:15.494Z,6.05
2022-08-28T03:58:43.889Z,5.60
2022-08-28T04:01:11.253Z,6.28
2022-08-28T04:03:38.659Z,6.20
2022-08-28T04:06:06.340Z,8.38
2022-08-28T04:08:34.042Z,6.72
2022-08-28T04:11:01.280Z,7.25
2022-08-28T04:13:28.907Z,5.75
2022-08-28T04:15:58.201Z,6.28
2022-08-28T04:18:26.221Z,5.95
2022-08-28T04:21:11.360Z,5.40
2022-08-28T04:23:40.091Z,6.03
2022-08-28T04:26:12.350Z,7.03
2022-08-28T04:28:40.654Z,7.28
2022-08-28T04:31:08.661Z,7.13
2022-08-28T04:33:36.846Z,5.78
2022-08-28T04:36:07.081Z,6.68
2022-08-28T04:41:10.212Z,5.95
2022-08-28T04:43:37.444Z,6.90
2022-08-28T04:46:09.872Z,5.53
2022-08-28T04:48:38.036Z,6.28
2022-08-28T04:51:07.161Z,8.18
2022-08-28T04:53:34.755Z,8.73
2022-08-28T04:56:05.077Z,7.78
2022-08-28T04:58:34.305Z,7.85
2022-08-28T05:01:07.489Z,7.00
2022-08-28T05:03:35.540Z,7.10
2022-08-28T05:06:03.959Z,8.50
2022-08-28T05:08:31.633Z,9.63
2022-08-28T05:11:08.725Z,8.60
2022-08-28T05:13:35.956Z,7.22
2022-08-28T05:16:04.988Z,7.30
2022-08-28T05:18:32.206Z,9.75
2022-08-28T05:20:59.579Z,7.82
2022-08-28T05:23:26.940Z,7.57
2022-08-28T05:25:54.283Z,8.00
2022-08-28T05:28:24.791Z,8.48
2022-08-28T05:30:52.612Z,9.93
2022-08-28T05:33:20.445Z,9.13
2022-08-28T05:35:48.241Z,9.43
2022-08-28T05:38:17.214Z,9.95
2022-08-28T05:40:49.690Z,11.02
2022-08-28T05:43:18.305Z,10.45
2022-08-28T05:45:45.822Z,9.27
2022-08-28T05:48:13.421Z,10.18
2022-08-28T05:50:47.175Z,9.18
2022-08-28T05:53:15.330Z,8.50
2022-08-28T05:55:42.698Z,11.18
2022-08-28T05:58:42.008Z,11.00
2022-08-28T06:01:15.621Z,11.60
2022-08-28T06:03:45.169Z,10.80
2022-08-28T06:06:12.986Z,10.52
2022-08-28T06:08:58.188Z,11.50
2022-08-28T06:11:30.714Z,8.93
2022-08-28T06:14:03.558Z,9.52
2022-08-28T06:16:32.709Z,10.07
2022-08-28T06:19:00.832Z,9.23
2022-08-28T06:21:29.394Z,10.25
2022-08-28T06:23:57.268Z,11.55
2022-08-28T06:26:24.657Z,13.57
2022-08-28T06:28:53.336Z,11.07
2022-08-28T06:31:23.427Z,11.43
2022-08-28T06:33:54.408Z,14.57
2022-08-28T06:36:22.358Z,10.82
2022-08-28T06:38:50.744Z,13.10
2022-08-28T06:41:18.633Z,11.65
2022-08-28T06:43:45.946Z,11.10
2022-08-28T06:46:13.485Z,13.63
2022-08-28T06:48:40.997Z,12.43
2022-08-28T06:51:10.863Z,12.52
2022-08-28T06:53:40.259Z,10.90
2022-08-28T06:56:26.316Z,11.65
2022-08-28T06:58:57.023Z,11.10
2022-08-28T07:01:29.730Z,10.52
2022-08-28T07:04:00.704Z,12.80
2022-08-28T07:06:31.143Z,11.88
2022-08-28T07:08:58.475Z,10.80
2022-08-28T07:11:29.132Z,10.40
2022-08-28T07:13:57.797Z,11.73
2022-08-28T07:16:28.483Z,10.48
2022-08-28T07:18:56.389Z,9.57
2022-08-28T07:21:23.946Z,12.57
2022-08-28T07:23:51.645Z,11.35
2022-08-28T07:26:22.976Z,10.45
2022-08-28T07:28:51.308Z,9.90
2022-08-28T07:31:23.224Z,10.45
2022-08-28T07:33:53.873Z,10.27
2022-08-28T07:36:29.783Z,10.25
2022-08-28T07:38:59.156Z,10.23
2022-08-28T07:41:29.645Z,11.05
2022-08-28T07:44:16.175Z,9.93
2022-08-28T07:46:44.841Z,10.43
2022-08-28T07:49:15.705Z,11.70
2022-08-28T07:51:43.060Z,11.23
2022-08-28T07:54:17.832Z,9.02
2022-08-28T07:56:46.030Z,9.43
2022-08-28T07:59:16.944Z,9.93
2022-08-28T08:01:47.185Z,9.85
2022-08-28T08:04:16.361Z,14.27
2022-08-28T08:06:45.286Z,9.73
2022-08-28T08:09:16.111Z,10.38
2022-08-28T08:11:43.892Z,11.40
2022-08-28T08:14:12.169Z,10.38
2022-08-28T08:16:42.052Z,11.55
2022-08-28T08:19:14.097Z,10.88
2022-08-28T08:21:46.532Z,11.40
2022-08-28T08:24:19.990Z,10.40
2022-08-28T08:26:55.210Z,11.48
2022-08-28T08:29:33.503Z,11.50
2022-08-28T08:32:06.214Z,12.02
2022-08-28T08:34:42.407Z,10.38
2022-08-28T08:37:10.694Z,8.77
2022-08-28T08:39:38.635Z,8.88
2022-08-28T08:42:26.597Z,8.23
2022-08-28T08:44:56.943Z,8.93
2022-08-28T08:47:51.788Z,8.13
2022-08-28T08:50:35.298Z,10.57
2022-08-28T08:53:20.932Z,12.38
2022-08-28T08:55:51.206Z,9.25
2022-08-28T09:01:27.529Z,9.02
2022-08-28T09:04:06.374Z,12.63
2022-08-28T09:06:33.605Z,9.30
2022-08-28T09:09:05.477Z,10.35
2022-08-28T09:11:40.915Z,10.05
2022-08-28T09:14:29.524Z,10.13
2022-08-28T09:16:58.243Z,10.30
2022-08-28T09:19:25.804Z,11.88
2022-08-28T09:21:53.788Z,9.90
2022-08-28T09:24:30.691Z,10.65
2022-08-28T09:27:04.857Z,8.88
2022-08-28T09:29:36.319Z,8.70
2022-08-28T09:32:24.352Z,11.00
2022-08-28T09:35:06.783Z,10.90
2022-08-28T09:37:36.074Z,8.93
2022-08-28T09:40:22.134Z,12.65
2022-08-28T09:43:19.781Z,8.75
2022-08-28T09:45:58.561Z,9.18
2022-08-28T09:48:37.555Z,11.95
2022-08-28T09:51:38.810Z,11.73
2022-08-28T09:54:19.748Z,8.75
2022-08-28T09:56:47.703Z,8.63
2022-08-28T09:59:23.967Z,10.15
2022-08-28T10:01:51.669Z,10.25
2022-08-28T10:04:36.894Z,11.98
2022-08-28T10:07:17.242Z,9.30
2022-08-28T10:12:45.120Z,12.40
2022-08-28T10:15:19.501Z,11.85
2022-08-28T10:18:08.384Z,9.38
2022-08-28T10:20:54.501Z,9.30
2022-08-28T10:23:29.441Z,8.90
2022-08-28T10:26:04.399Z,8.75
2022-08-28T10:28:50.184Z,9.25
2022-08-28T10:31:31.634Z,8.50
2022-08-28T10:34:36.312Z,13.85
2022-08-28T10:37:18.567Z,9.05
2022-08-28T10:39:57.972Z,9.98
2022-08-28T10:42:36.561Z,10.67
2022-08-28T10:45:09.129Z,12.45
2022-08-28T10:47:42.342Z,8.98
2022-08-28T10:50:19.325Z,9.85
2022-08-28T10:52:57.773Z,12.38
2022-08-28T10:55:39.827Z,10.13
2022-08-28T10:58:24.044Z,10.43
2022-08-28T11:01:01.364Z,11.32
2022-08-28T11:03:34.835Z,10.63
2022-08-28T11:06:11.796Z,11.38
2022-08-28T11:08:40.072Z,8.13
2022-08-28T11:11:14.148Z,10.35
2022-08-28T11:13:59.982Z,9.98
2022-08-28T11:16:30.304Z,10.65
2022-08-28T11:19:28.255Z,8.93
2022-08-28T11:21:55.553Z,8.95
2022-08-28T11:24:38.650Z,10.10
2022-08-28T11:27:29.910Z,13.82
2022-08-28T11:29:58.532Z,8.88
2022-08-28T11:32:34.645Z,10.45
2022-08-28T11:35:10.656Z,10.63
2022-08-28T11:37:46.847Z,8.93
2022-08-28T11:40:41.757Z,7.63
2022-08-28T11:43:16.225Z,8.93
2022-08-28T11:45:45.734Z,7.70
2022-08-28T11:48:40.019Z,8.18
2022-08-28T11:51:35.728Z,9.65
2022-08-28T11:54:48.887Z,8.57
2022-08-28T11:57:25.950Z,9.93
2022-08-28T12:00:00.383Z,9.60
2022-08-28T12:02:39.834Z,12.15
2022-08-28T12:05:33.464Z,10.60
2022-08-28T12:08:03.270Z,9.00
2022-08-28T12:10:35.466Z,9.40
2022-08-28T12:13:08.491Z,8.95
2022-08-28T12:15:36.095Z,9.18
2022-08-28T12:18:10.712Z,7.22
2022-08-28T12:20:37.990Z,13.13
2022-08-28T12:23:31.903Z,8.57
2022-08-28T12:26:25.462Z,10.15
2022-08-28T12:29:21.981Z,7.63
2022-08-28T12:32:12.487Z,8.95
2022-08-28T12:35:00.184Z,10.02
2022-08-28T12:37:52.049Z,8.93
2022-08-28T12:40:25.690Z,9.50
2022-08-28T12:43:09.359Z,8.35
2022-08-28T12:45:56.942Z,9.00
2022-08-28T12:48:29.571Z,7.80
2022-08-28T12:51:03.012Z,7.60
2022-08-28T12:53:48.586Z,8.70
2022-08-28T12:56:18.383Z,6.53
2022-08-28T12:58:47.580Z,10.00
2022-08-28T13:01:32.878Z,8.15
2022-08-28T13:04:04.555Z,10.77
2022-08-28T13:06:36.248Z,7.95
2022-08-28T13:09:21.514Z,8.55
2022-08-28T13:11:51.864Z,6.95
2022-08-28T13:14:57.752Z,10.38
2022-08-28T13:18:03.393Z,9.25
2022-08-28T13:20:34.441Z,7.03
2022-08-28T13:23:02.899Z,6.82
2022-08-28T13:25:37.061Z,7.60
2022-08-28T13:28:13.185Z,9.35
2022-08-28T13:30:40.629Z,8.30
2022-08-28T13:33:23.007Z,8.95
2022-08-28T13:35:51.773Z,11.00
2022-08-28T13:38:21.632Z,6.60
2022-08-28T13:40:59.072Z,8.23
2022-08-28T13:43:29.896Z,8.05
2022-08-28T13:48:27.254Z,6.38
2022-08-28T13:51:10.800Z,9.45
2022-08-28T13:53:39.364Z,6.05
2022-08-28T13:56:07.143Z,11.68
2022-08-28T13:58:34.478Z,8.05
2022-08-28T14:01:02.383Z,7.03
2022-08-28T14:03:41.653Z,6.63
2022-08-28T14:06:09.536Z,5.97
2022-08-28T14:08:36.831Z,7.22
2022-08-28T14:11:05.209Z,5.75
2022-08-28T14:13:32.484Z,7.43
2022-08-28T14:15:59.995Z,7.03
2022-08-28T14:18:28.371Z,7.78
2022-08-28T14:20:55.646Z,8.80
2022-08-28T14:23:23.460Z,6.88
2022-08-28T14:25:51.241Z,8.10
2022-08-28T14:28:18.959Z,6.68
2022-08-28T14:30:51.297Z,9.48
2022-08-28T14:33:20.577Z,5.85
2022-08-28T14:35:49.296Z,7.22
2022-08-28T14:38:17.106Z,7.97
2022-08-28T14:40:45.414Z,8.43
2022-08-28T14:43:14.285Z,5.85
2022-08-28T14:45:46.731Z,7.78
2022-08-28T14:48:15.027Z,6.97
2022-08-28T14:50:45.943Z,5.50
2022-08-28T14:53:14.304Z,8.05
2022-08-28T14:55:49.750Z,7.10
2022-08-28T14:58:18.919Z,7.65
2022-08-28T15:00:49.551Z,7.68
2022-08-28T15:03:18.895Z,6.80
2022-08-28T15:05:46.903Z,10.68
2022-08-28T15:08:17.114Z,11.38
2022-08-28T15:13:13.036Z,8.25
2022-08-28T15:15:42.882Z,5.35
2022-08-28T15:18:11.620Z,6.72
2022-08-28T15:20:45.144Z,8.20
2022-08-28T15:23:14.680Z,6.72
2022-08-28T15:25:42.546Z,6.03
2022-08-28T15:28:10.401Z,11.73
2022-08-28T15:30:38.058Z,6.40
2022-08-28T15:33:06.735Z,6.40
2022-08-28T15:35:35.922Z,6.25
2022-08-28T15:38:04.133Z,6.20
2022-08-28T15:40:50.105Z,5.93
2022-08-28T15:43:17.614Z,6.35
2022-08-28T15:45:45.387Z,10.45
2022-08-28T15:48:13.682Z,17.70
2022-08-28T15:50:41.916Z,13.30
2022-08-28T15:53:10.231Z,10.43
2022-08-28T15:55:37.403Z,8.57
2022-08-28T15:58:13.643Z,7.22
2022-08-28T16:00:42.395Z,5.70
2022-08-28T16:03:09.774Z,8.30
2022-08-28T16:05:39.691Z,6.25
2022-08-28T16:08:09.560Z,7.35
2022-08-28T16:10:37.562Z,8.30
2022-08-28T16:13:06.902Z,7.38
2022-08-28T16:15:35.107Z,6.40
2022-08-28T16:18:02.481Z,7.43
2022-08-28T16:20:29.721Z,6.43
2022-08-28T16:22:57.201Z,9.13
2022-08-28T16:25:24.463Z,7.80
2022-08-28T16:27:52.332Z,6.70
2022-08-28T16:30:20.725Z,6.68
2022-08-28T16:32:52.139Z,5.72
2022-08-28T16:35:21.810Z,6.95
2022-08-28T16:37:49.407Z,6.47
2022-08-28T16:40:16.774Z,9.00
2022-08-28T16:42:51.843Z,12.15
2022-08-28T16:45:19.586Z,15.18
2022-08-28T16:47:47.151Z,18.27
2022-08-28T16:50:15.226Z,11.20
2022-08-28T16:52:42.612Z,15.30
2022-08-28T16:55:11.009Z,10.18
2022-08-28T16:57:39.184Z,11.45
2022-08-28T17:00:12.184Z,8.55
2022-08-28T17:02:41.274Z,8.55
2022-08-28T17:05:09.310Z,15.50
2022-08-28T17:07:37.110Z,13.32
2022-08-28T17:10:05.066Z,10.15
2022-08-28T17:12:32.432Z,7.93
2022-08-28T17:14:59.819Z,6.70
2022-08-28T17:17:27.230Z,9.43
2022-08-28T17:19:55.396Z,6.32
2022-08-28T17:22:34.978Z,7.97
2022-08-28T17:25:13.813Z,7.22
2022-08-28T17:27:41.823Z,5.88
2022-08-28T17:30:10.037Z,6.53
2022-08-28T17:32:37.578Z,6.60
2022-08-28T17:35:05.735Z,7.60
2022-08-28T17:37:33.103Z,7.03
2022-08-28T17:40:00.381Z,7.97
2022-08-28T17:42:27.710Z,5.43
2022-08-28T17:44:54.868Z,6.30
2022-08-28T17:47:27.358Z,6.55
2022-08-28T17:50:00.618Z,6.05
2022-08-28T17:52:28.962Z,5.53
2022-08-28T17:54:56.217Z,11.05
2022-08-28T17:57:24.599Z,5.38
2022-08-28T17:59:52.081Z,8.35
2022-08-28T18:02:19.904Z,9.25
2022-08-28T18:04:47.190Z,5.80
2022-08-28T18:07:14.559Z,7.05
2022-08-28T18:09:41.861Z,7.40
2022-08-28T18:12:12.581Z,7.97
2022-08-28T18:14:40.902Z,6.38
2022-08-28T18:17:11.011Z,6.65
2022-08-28T18:19:40.447Z,7.45
2022-08-28T18:22:10.428Z,6.57
2022-08-28T18:24:38.430Z,7.82
2022-08-28T18:27:07.867Z,9.60
2022-08-28T18:29:37.003Z,6.32
2022-08-28T18:32:05.095Z,5.85
2022-08-28T18:34:32.365Z,7.43
2022-08-28T18:37:01.066Z,8.80
2022-08-28T18:39:29.670Z,7.60
2022-08-28T18:41:58.424Z,6.05
2022-08-28T18:44:25.870Z,7.95
2022-08-28T18:46:53.320Z,6.75
2022-08-28T18:49:20.624Z,5.97
2022-08-28T18:51:48.368Z,5.60
2022-08-28T18:54:19.247Z,6.68
2022-08-28T18:56:49.671Z,7.60
2022-08-28T18:59:18.778Z,5.07
2022-08-28T19:01:46.294Z,7.00
2022-08-28T19:04:13.620Z,4.85
2022-08-28T19:06:41.893Z,5.43
2022-08-28T19:09:09.187Z,4.97
2022-08-28T19:11:39.292Z,6.43
2022-08-28T19:14:07.648Z,6.90
2022-08-28T19:16:35.643Z,6.13
2022-08-28T19:19:04.511Z,7.70
2022-08-28T19:21:32.592Z,5.30
2022-08-28T19:23:59.800Z,8.23
2022-08-28T19:26:27.922Z,6.22
2022-08-28T19:28:56.029Z,5.65
2022-08-28T19:31:25.122Z,7.40
2022-08-28T19:33:52.597Z,5.70
2022-08-28T19:36:20.804Z,4.70
2022-08-28T19:38:47.968Z,5.90
2022-08-28T19:41:15.274Z,5.43
2022-08-28T19:43:42.929Z,6.35
2022-08-28T19:46:18.534Z,6.78
2022-08-28T19:48:48.923Z,5.90
2022-08-28T19:51:17.750Z,6.95
2022-08-28T19:53:56.818Z,6.32
2022-08-28T19:56:29.553Z,6.45
2022-08-28T19:58:59.437Z,9.25
2022-08-28T20:01:30.164Z,6.75
2022-08-28T20:03:59.611Z,7.35
2022-08-28T20:06:27.694Z,6.27
2022-08-28T20:08:55.028Z,7.13
2022-08-28T20:11:30.086Z,7.07
2022-08-28T20:14:04.526Z,6.25
2022-08-28T20:16:35.041Z,5.53
2022-08-28T20:19:03.240Z,8.50
2022-08-28T20:21:37.057Z,8.45
2022-08-28T20:24:10.757Z,7.53
2022-08-28T20:26:38.066Z,7.80
2022-08-28T20:29:07.611Z,5.57
2022-08-28T20:31:35.888Z,5.57
2022-08-28T20:34:03.138Z,5.43
2022-08-28T20:36:30.310Z,6.93
2022-08-28T20:38:57.622Z,5.97
2022-08-28T20:41:25.087Z,6.47
2022-08-28T20:43:52.296Z,6.90
2022-08-28T20:46:20.038Z,6.97
2022-08-28T20:48:47.605Z,10.35
2022-08-28T20:51:14.802Z,6.18
2022-08-28T20:53:42.072Z,7.20
2022-08-28T20:56:10.548Z,7.68
2022-08-28T20:58:38.635Z,6.80
2022-08-28T21:01:06.250Z,5.88
2022-08-28T21:03:33.562Z,4.70
2022-08-28T21:06:00.737Z,6.93
2022-08-28T21:08:28.107Z,5.85
2022-08-28T21:10:55.311Z,5.80
2022-08-28T21:13:23.519Z,5.22
2022-08-28T21:15:50.808Z,6.78
2022-08-28T21:18:18.356Z,6.25
2022-08-28T21:20:46.422Z,5.65
2022-08-28T21:23:13.814Z,6.55
2022-08-28T21:25:41.469Z,6.30
2022-08-28T21:28:08.893Z,6.07
2022-08-28T21:30:36.353Z,7.65
2022-08-28T21:33:04.168Z,6.28
2022-08-28T21:35:31.929Z,8.23
2022-08-28T21:37:59.212Z,6.50
2022-08-28T21:40:26.452Z,6.15
2022-08-28T21:42:53.765Z,6.28
2022-08-28T21:45:22.243Z,7.10
2022-08-28T21:47:49.861Z,6.43
2022-08-28T21:50:17.780Z,6.43
2022-08-28T21:52:45.818Z,6.07
2022-08-28T21:55:15.494Z,5.85
2022-08-28T21:57:43.420Z,11.05
2022-08-28T22:00:18.248Z,7.22
2022-08-28T22:02:45.708Z,7.53
2022-08-28T22:05:13.038Z,6.47
2022-08-28T22:07:40.675Z,6.05
2022-08-28T22:10:09.473Z,5.68
2022-08-28T22:12:36.708Z,6.45
2022-08-28T22:15:04.711Z,6.45
2022-08-28T22:17:31.958Z,5.72
2022-08-28T22:19:59.226Z,5.85
2022-08-28T22:22:44.955Z,6.18
2022-08-28T22:25:12.212Z,6.43
2022-08-28T22:27:39.450Z,6.13
2022-08-28T22:30:07.133Z,6.88
2022-08-28T22:32:34.376Z,6.93
2022-08-28T22:35:01.622Z,5.82
2022-08-28T22:37:28.900Z,6.20
2022-08-28T22:39:56.563Z,6.18
2022-08-28T22:42:23.786Z,5.75
2022-08-28T22:44:51.065Z,6.95
2022-08-28T22:47:18.875Z,5.68
2022-08-28T22:49:46.624Z,5.82
2022-08-28T22:52:14.498Z,6.25
2022-08-28T22:54:41.916Z,6.57
2022-08-28T22:57:09.143Z,6.38
2022-08-28T22:59:36.425Z,6.15
2022-08-28T23:02:04.325Z,6.82
2022-08-28T23:04:31.549Z,6.97
2022-08-28T23:06:58.838Z,8.27
2022-08-28T23:09:26.109Z,6.63
2022-08-28T23:11:53.467Z,5.00
2022-08-28T23:14:20.684Z,5.28
2022-08-28T23:16:47.887Z,5.78
2022-08-28T23:19:16.955Z,5.28
2022-08-28T23:21:44.573Z,6.85
2022-08-28T23:24:14.128Z,6.15
2022-08-28T23:26:41.645Z,8.02
2022-08-28T23:29:10.026Z,5.85
2022-08-28T23:31:38.277Z,6.47
2022-08-28T23:34:06.736Z,6.63
2022-08-28T23:36:35.232Z,5.35
2022-08-28T23:39:03.225Z,5.07
2022-08-28T23:41:31.538Z,6.30
2022-08-28T23:43:59.129Z,5.55
2022-08-28T23:46:26.335Z,5.63
2022-08-28T23:48:53.585Z,6.35
2022-08-28T23:51:22.194Z,5.93
2022-08-28T23:53:50.226Z,6.05
2022-08-28T23:56:18.477Z,5.90
2022-08-28T23:58:45.778Z,7.07
